Explorer - northwestern half: Past 24 Hour Conditions

 

West Dixon Entrance - 46205

10:00 AM PST 20 January 2018Buoy position: 54.17N 134.28W
Disclaimer

This table is a summary of hourly weather conditions for the past 24 hours.
Please note that these observations might not always be representative of weather conditions over their associated marine area.

Date / Time
(PST)
Wind(knots) Wave height(m) Wave period(s) Pressure(kPa) Air tempC) Water tempC)
20 January 2018
10:00 E 18 gust 21 2.1 10.0 99.4 7 8
9:00 E 18 gust 21 2.2 11.0 99.5 7 8
8:00 SE 19 gust 23 2.4 11.0 99.5 7 8
7:00 SE 18 gust 21 2.4 11.0 99.6 7 8
6:00 SE 16 gust 19 2.5 11.0 99.6 6 8
5:00 SSE 16 gust 19 2.6 11.0 99.7 6 8
4:00 SSE 14 gust 18 2.8 12.0 99.7 5 8
3:00 S 16 gust 19 2.8 11.0 99.8 5 8
2:00 SSW 12 gust 16 2.7 12.0 99.8 6 8
1:00 WSW 12 gust 14 2.7 12.0 99.8 6 8
0:00 SE 18 gust 21 2.7 12.0 99.8 7 8
19 January 2018
23:00 SE 18 gust 21 2.9 12.0 99.8 8 8
22:00 SE 16 gust 19 2.9 13.0 99.9 7 8
21:00 SE 16 gust 18 3.0 14.0 99.9 7 8
20:00 SE 12 gust 16 3.1 13.0 99.9 7 8
19:00 SSE 12 gust 14 3.2 12.0 100.0 8 8
18:00 SSE 10 gust 14 3.0 14.0 100.0 7 8
17:00 SSE 10 gust 12 3.4 14.0 100.0 8 8
16:00 SSE 12 gust 14 3.2 12.0 100.0 8 8
15:00 SSE 6 gust 8 3.3 14.0 100.0 8 8
14:00 SE 8 gust 10 2.8 12.0 100.0 8 8
13:00 SE 10 gust 12 2.8 14.0 100.0 8 8
12:00 ESE 10 gust 12 2.8 13.0 100.0 8 8
11:00 E 12 gust 14 2.4 13.0 100.1 8 8
10:00 E 12 gust 14 2.4 13.0 100.0 8 8

Zoom-in to make a selection

Map of Pacific - North Coast marine weather areas Middle Nomad - 46004 South Nomad - 46036 Dixon Entrance Central - 46145 South Moresby - 46147 Nanakwa Shoal - 46181 North Hecate Strait - 46183 North Nomad - 46184 South Hecate Strait - 46185 West Sea Otter - 46204 West Dixon Entrance - 46205 East Dellwood - 46207 West Moresby - 46208 Sartine Island Cape St.James Kindakun Rocks Langara Island Masset Municipal Airport Rose Spit Sandspit Airport Bella Bella Airport Bella Coola Airport Cathedral Point Cumshewa Island Grey Islet Holland Rock Lucy Islands Lightstation Prince Rupert Airport Bonilla Island
Legend:
buoy Buoy
land station Land Station

Pacific - North Coast Area

Another Region

What we are doing

Date modified: